createdAt,value
2022-12-13T00:01:45.642Z,9.27
2022-12-13T00:04:13.997Z,8.40
2022-12-13T00:06:41.028Z,8.25
2022-12-13T00:09:07.932Z,8.98
2022-12-13T00:11:35.043Z,9.20
2022-12-13T00:14:02.219Z,7.72
2022-12-13T00:16:29.166Z,8.32
2022-12-13T00:19:00.208Z,9.95
2022-12-13T00:21:32.251Z,13.30
2022-12-13T00:24:00.413Z,11.80
2022-12-13T00:26:30.432Z,11.13
2022-12-13T00:29:00.745Z,11.68
2022-12-13T00:31:56.673Z,11.00
2022-12-13T00:34:14.880Z,9.93
2022-12-13T00:36:41.671Z,8.85
2022-12-13T00:39:08.485Z,9.13
2022-12-13T00:41:36.161Z,9.48
2022-12-13T00:44:04.517Z,8.95
2022-12-13T00:46:31.638Z,9.75
2022-12-13T00:49:00.302Z,10.85
2022-12-13T00:51:29.306Z,10.10
2022-12-13T00:53:56.551Z,8.88
2022-12-13T00:56:25.840Z,10.15
2022-12-13T00:58:53.739Z,9.52
2022-12-13T01:01:24.788Z,9.07
2022-12-13T01:03:53.558Z,9.30
2022-12-13T01:06:23.611Z,9.25
2022-12-13T01:08:50.442Z,9.93
2022-12-13T01:11:18.399Z,9.68
2022-12-13T01:13:45.197Z,11.00
2022-12-13T01:16:12.960Z,11.93
2022-12-13T01:18:40.659Z,11.93
2022-12-13T01:21:13.393Z,10.70
2022-12-13T01:23:40.745Z,11.50
2022-12-13T01:26:09.896Z,10.77
2022-12-13T01:28:36.688Z,12.10
2022-12-13T01:31:05.845Z,11.02
2022-12-13T01:33:33.222Z,10.85
2022-12-13T01:36:05.785Z,11.05
2022-12-13T01:38:37.897Z,10.93
2022-12-13T01:41:16.758Z,10.95
2022-12-13T01:43:54.999Z,10.85
2022-12-13T01:46:21.960Z,10.07
2022-12-13T01:49:19.627Z,10.57
2022-12-13T01:51:51.679Z,10.93
2022-12-13T01:54:22.830Z,10.13
2022-12-13T01:56:52.690Z,11.30
2022-12-13T01:59:28.231Z,10.10
2022-12-13T02:02:00.764Z,9.80
2022-12-13T02:04:44.197Z,10.80
2022-12-13T02:07:22.704Z,8.77
2022-12-13T02:09:56.259Z,9.40
2022-12-13T02:12:25.451Z,11.30
2022-12-13T02:15:11.860Z,10.02
2022-12-13T02:18:10.453Z,10.52
2022-12-13T02:21:02.921Z,9.43
2022-12-13T02:24:09.058Z,10.82
2022-12-13T02:26:48.399Z,11.20
2022-12-13T02:29:39.017Z,9.52
2022-12-13T02:32:15.922Z,10.45
2022-12-13T02:35:22.451Z,9.80
2022-12-13T02:38:00.017Z,10.38
2022-12-13T02:40:30.719Z,10.05
2022-12-13T02:43:21.489Z,9.82
2022-12-13T02:45:58.316Z,10.73
2022-12-13T02:48:29.370Z,9.77
2022-12-13T02:50:57.043Z,10.30
2022-12-13T02:53:24.621Z,10.60
2022-12-13T02:55:51.617Z,10.63
2022-12-13T02:58:23.145Z,11.65
2022-12-13T03:01:28.928Z,11.50
2022-12-13T03:04:36.262Z,11.77
2022-12-13T03:07:24.424Z,11.27
2022-12-13T03:10:06.397Z,11.30
2022-12-13T03:12:56.287Z,10.63
2022-12-13T03:15:47.955Z,12.95
2022-12-13T03:18:17.763Z,10.35
2022-12-13T03:20:49.869Z,11.77
2022-12-13T03:23:18.197Z,13.27
2022-12-13T03:25:46.367Z,13.25
2022-12-13T03:28:13.646Z,13.57
2022-12-13T03:30:40.440Z,14.38
2022-12-13T03:33:07.258Z,14.45
2022-12-13T03:35:45.426Z,12.65
2022-12-13T03:38:22.017Z,13.95
2022-12-13T03:40:54.840Z,14.02
2022-12-13T03:43:22.930Z,15.10
2022-12-13T03:45:53.612Z,14.07
2022-12-13T03:48:22.761Z,14.75
2022-12-13T03:50:53.743Z,15.18
2022-12-13T03:53:22.644Z,15.23
2022-12-13T03:55:58.532Z,15.00
2022-12-13T03:58:35.816Z,14.90
2022-12-13T04:01:09.103Z,13.40
2022-12-13T04:03:36.941Z,14.65
2022-12-13T04:06:04.164Z,14.15
2022-12-13T04:08:31.043Z,14.65
2022-12-13T04:10:57.902Z,15.25
2022-12-13T04:13:33.722Z,16.38
2022-12-13T04:16:01.868Z,14.82
2022-12-13T04:18:28.864Z,14.63
2022-12-13T04:20:55.668Z,15.48
2022-12-13T04:23:22.523Z,14.57
2022-12-13T04:25:49.329Z,14.82
2022-12-13T04:28:22.402Z,15.13
2022-12-13T04:30:53.101Z,14.65
2022-12-13T04:33:22.280Z,15.43
2022-12-13T04:35:49.628Z,13.70
2022-12-13T04:38:16.463Z,15.63
2022-12-13T04:40:43.417Z,15.20
2022-12-13T04:43:10.463Z,15.77
2022-12-13T04:45:37.309Z,15.15
2022-12-13T04:48:04.639Z,15.02
2022-12-13T04:50:31.421Z,14.88
2022-12-13T04:52:58.256Z,14.88
2022-12-13T04:55:25.018Z,16.25
2022-12-13T04:57:51.809Z,14.45
2022-12-13T05:00:18.760Z,14.60
2022-12-13T05:02:45.955Z,15.27
2022-12-13T05:05:13.202Z,15.68
2022-12-13T05:07:42.104Z,14.95
2022-12-13T05:10:10.447Z,14.60
2022-12-13T05:12:37.337Z,14.52
2022-12-13T05:15:04.747Z,16.40
2022-12-13T05:17:31.943Z,15.52
2022-12-13T05:19:58.734Z,15.82
2022-12-13T05:22:25.519Z,15.55
2022-12-13T05:24:52.458Z,17.98
2022-12-13T05:27:24.859Z,18.85
2022-12-13T05:30:04.019Z,20.77
2022-12-13T05:32:43.507Z,17.35
2022-12-13T05:35:22.310Z,18.75
2022-12-13T05:37:55.301Z,18.80
2022-12-13T05:40:27.376Z,18.58
2022-12-13T05:43:01.466Z,20.25
2022-12-13T05:45:30.128Z,19.67
2022-12-13T05:47:57.094Z,18.80
2022-12-13T05:50:24.604Z,17.23
2022-12-13T05:52:51.637Z,16.55
2022-12-13T05:55:18.648Z,16.60
2022-12-13T05:57:50.543Z,16.65
2022-12-13T06:00:28.857Z,16.67
2022-12-13T06:03:00.563Z,16.92
2022-12-13T06:05:28.961Z,16.73
2022-12-13T06:07:57.440Z,17.60
2022-12-13T06:10:35.006Z,16.40
2022-12-13T06:13:21.010Z,15.57
2022-12-13T06:15:48.244Z,15.55
2022-12-13T06:18:15.621Z,16.33
2022-12-13T06:20:42.407Z,16.52
2022-12-13T06:23:09.420Z,15.70
2022-12-13T06:25:39.357Z,15.10
2022-12-13T06:28:06.137Z,15.80
2022-12-13T06:30:33.227Z,16.98
2022-12-13T06:33:00.228Z,17.98
2022-12-13T06:35:29.892Z,16.60
2022-12-13T06:38:01.171Z,16.77
2022-12-13T06:40:29.053Z,16.58
2022-12-13T06:42:56.102Z,17.15
2022-12-13T06:45:23.820Z,16.13
2022-12-13T06:47:50.866Z,14.60
2022-12-13T06:50:17.716Z,14.55
2022-12-13T06:52:46.933Z,15.00
2022-12-13T06:55:14.113Z,15.77
2022-12-13T06:57:42.007Z,15.20
2022-12-13T07:00:10.555Z,16.52
2022-12-13T07:02:38.656Z,16.25
2022-12-13T07:05:06.097Z,16.40
2022-12-13T07:07:32.845Z,16.92
2022-12-13T07:09:59.780Z,16.42
2022-12-13T07:12:26.677Z,15.85
2022-12-13T07:14:53.790Z,16.42
2022-12-13T07:17:33.512Z,15.85
2022-12-13T07:20:08.689Z,15.73
2022-12-13T07:22:40.102Z,17.15
2022-12-13T07:25:28.665Z,16.75
2022-12-13T07:28:05.454Z,17.27
2022-12-13T07:30:41.387Z,15.88
2022-12-13T07:33:09.411Z,17.00
2022-12-13T07:35:37.224Z,17.60
2022-12-13T07:38:05.557Z,17.02
2022-12-13T07:40:34.890Z,16.75
2022-12-13T07:43:02.043Z,17.60
2022-12-13T07:45:29.356Z,16.63
2022-12-13T07:47:56.290Z,16.63
2022-12-13T07:50:25.178Z,15.35
2022-12-13T07:52:53.658Z,16.67
2022-12-13T07:55:23.193Z,17.17
2022-12-13T07:58:08.520Z,16.92
2022-12-13T08:00:35.871Z,18.38
2022-12-13T08:03:02.923Z,17.92
2022-12-13T08:05:29.841Z,19.45
2022-12-13T08:08:07.702Z,17.45
2022-12-13T08:10:34.841Z,17.98
2022-12-13T08:13:05.151Z,21.92
2022-12-13T08:15:32.144Z,18.23
2022-12-13T08:18:01.180Z,19.30
2022-12-13T08:20:28.384Z,18.90
2022-12-13T08:23:02.128Z,17.33
2022-12-13T08:25:30.752Z,17.92
2022-12-13T08:28:01.952Z,19.08
2022-12-13T08:30:29.808Z,18.83
2022-12-13T08:32:56.510Z,17.20
2022-12-13T08:35:23.241Z,18.13
2022-12-13T08:37:50.233Z,18.42
2022-12-13T08:40:17.167Z,18.65
2022-12-13T08:42:44.103Z,19.88
2022-12-13T08:45:11.674Z,19.48
2022-12-13T08:47:41.711Z,19.05
2022-12-13T08:50:09.207Z,18.45
2022-12-13T08:52:40.122Z,17.23
2022-12-13T08:55:12.781Z,18.23
2022-12-13T08:57:41.144Z,18.67
2022-12-13T09:00:12.498Z,17.65
2022-12-13T09:02:39.477Z,21.77
2022-12-13T09:05:08.493Z,19.65
2022-12-13T09:07:36.530Z,21.70
2022-12-13T09:10:25.333Z,24.58
2022-12-13T09:12:52.063Z,20.60
2022-12-13T09:15:28.801Z,18.80
2022-12-13T09:18:04.881Z,18.98
2022-12-13T09:20:40.787Z,21.48
2022-12-13T09:23:13.798Z,18.90
2022-12-13T09:26:05.327Z,19.63
2022-12-13T09:28:34.771Z,20.33
2022-12-13T09:31:01.665Z,20.60
2022-12-13T09:33:31.097Z,32.47
2022-12-13T09:35:58.311Z,32.13
2022-12-13T09:38:31.345Z,22.10
2022-12-13T09:41:40.732Z,20.55
2022-12-13T09:44:31.013Z,20.42
2022-12-13T09:47:13.630Z,18.55
2022-12-13T09:49:43.437Z,19.50
2022-12-13T09:52:22.532Z,17.15
2022-12-13T09:54:53.058Z,20.05
2022-12-13T09:57:32.837Z,19.23
2022-12-13T10:00:06.330Z,22.23
2022-12-13T10:02:33.994Z,19.83
2022-12-13T10:05:34.236Z,18.05
2022-12-13T10:08:16.702Z,17.83
2022-12-13T10:10:44.259Z,18.00
2022-12-13T10:13:17.313Z,17.48
2022-12-13T10:15:48.287Z,22.88
2022-12-13T10:18:20.446Z,34.78
2022-12-13T10:20:49.786Z,23.02
2022-12-13T10:23:38.553Z,25.88
2022-12-13T10:26:09.790Z,18.75
2022-12-13T10:28:51.654Z,17.67
2022-12-13T10:31:20.296Z,21.13
2022-12-13T10:33:58.291Z,19.42
2022-12-13T10:36:36.082Z,19.50
2022-12-13T10:39:03.565Z,19.55
2022-12-13T10:41:38.600Z,18.48
2022-12-13T10:44:23.085Z,18.48
2022-12-13T10:47:17.061Z,20.25
2022-12-13T10:49:59.029Z,21.58
2022-12-13T10:52:43.480Z,19.42
2022-12-13T10:55:32.428Z,21.02
2022-12-13T10:58:07.560Z,18.38
2022-12-13T11:00:45.854Z,18.73
2022-12-13T11:03:29.711Z,18.15
2022-12-13T11:06:19.797Z,15.95
2022-12-13T11:08:46.672Z,17.52
2022-12-13T11:11:16.825Z,16.83
2022-12-13T11:13:51.842Z,17.85
2022-12-13T11:16:18.647Z,18.70
2022-12-13T11:18:54.948Z,17.13
2022-12-13T11:21:27.206Z,16.85
2022-12-13T11:23:56.206Z,18.42
2022-12-13T11:26:29.678Z,17.60
2022-12-13T11:29:30.994Z,17.55
2022-12-13T11:32:36.220Z,16.88
2022-12-13T11:35:15.153Z,15.35
2022-12-13T11:38:32.904Z,17.17
2022-12-13T11:41:07.859Z,15.35
2022-12-13T11:43:44.330Z,17.95
2022-12-13T11:46:17.409Z,18.27
2022-12-13T11:48:48.724Z,17.00
2022-12-13T11:51:20.990Z,18.33
2022-12-13T11:54:02.790Z,17.85
2022-12-13T11:56:42.697Z,18.63
2022-12-13T11:59:43.076Z,16.60
2022-12-13T12:02:21.807Z,16.63
2022-12-13T12:04:58.341Z,14.68
2022-12-13T12:07:36.469Z,15.02
2022-12-13T12:10:58.102Z,17.70
2022-12-13T12:14:14.468Z,16.77
2022-12-13T12:16:42.770Z,16.02
2022-12-13T12:19:20.874Z,17.15
2022-12-13T12:22:46.759Z,15.73
2022-12-13T12:25:35.676Z,15.80
2022-12-13T12:28:18.461Z,17.55
2022-12-13T12:30:51.441Z,20.45
2022-12-13T12:33:44.462Z,19.40
2022-12-13T12:36:33.161Z,16.88
2022-12-13T12:39:26.250Z,18.05
2022-12-13T12:42:19.439Z,15.10
2022-12-13T12:45:27.038Z,15.32
2022-12-13T12:48:56.923Z,16.67
2022-12-13T12:51:28.973Z,14.75
2022-12-13T12:54:34.854Z,16.67
2022-12-13T12:57:32.051Z,15.48
2022-12-13T13:00:17.692Z,16.38
2022-12-13T13:03:15.801Z,16.70
2022-12-13T13:06:08.552Z,17.08
2022-12-13T13:08:55.500Z,17.38
2022-12-13T13:11:25.987Z,17.83
2022-12-13T13:14:27.067Z,17.67
2022-12-13T13:16:55.929Z,17.08
2022-12-13T13:19:41.324Z,17.10
2022-12-13T13:22:31.053Z,18.20
2022-12-13T13:25:02.056Z,19.38
2022-12-13T13:27:30.469Z,17.55
2022-12-13T13:30:17.056Z,19.15
2022-12-13T13:32:44.344Z,21.73
2022-12-13T13:35:53.369Z,23.08
2022-12-13T13:38:29.203Z,23.02
2022-12-13T13:40:55.976Z,21.45
2022-12-13T13:43:32.529Z,20.83
2022-12-13T13:46:11.039Z,19.15
2022-12-13T13:48:56.340Z,18.10
2022-12-13T13:52:23.906Z,17.17
2022-12-13T13:54:55.910Z,18.42
2022-12-13T13:58:10.155Z,17.48
2022-12-13T14:01:08.931Z,16.98
2022-12-13T14:04:04.256Z,16.80
2022-12-13T14:07:26.559Z,16.52
2022-12-13T14:10:03.118Z,18.17
2022-12-13T14:13:10.593Z,17.73
2022-12-13T14:16:25.531Z,21.00
2022-12-13T14:19:27.990Z,22.90
2022-12-13T14:22:35.553Z,21.83
2022-12-13T14:25:46.427Z,19.55
2022-12-13T14:28:44.784Z,19.50
2022-12-13T14:31:38.138Z,19.90
2022-12-13T14:34:07.749Z,18.85
2022-12-13T14:36:36.665Z,18.92
2022-12-13T14:39:07.164Z,20.05
2022-12-13T14:41:56.404Z,21.52
2022-12-13T14:44:31.418Z,21.58
2022-12-13T14:47:03.923Z,22.50
2022-12-13T14:49:33.409Z,19.52
2022-12-13T14:52:06.507Z,21.13
2022-12-13T14:54:58.000Z,20.17
2022-12-13T14:57:30.379Z,20.60
2022-12-13T14:59:59.685Z,20.98
2022-12-13T15:02:30.048Z,20.20
2022-12-13T15:05:03.373Z,19.50
2022-12-13T15:07:38.138Z,19.90
2022-12-13T15:10:48.429Z,20.92
2022-12-13T15:13:33.259Z,18.50
2022-12-13T15:16:10.916Z,18.98
2022-12-13T15:18:38.747Z,18.88
2022-12-13T15:21:19.455Z,19.83
2022-12-13T15:23:49.029Z,19.25
2022-12-13T15:26:28.379Z,18.33
2022-12-13T15:29:09.424Z,18.02
2022-12-13T15:31:37.638Z,18.13
2022-12-13T15:34:34.226Z,18.90
2022-12-13T15:37:07.392Z,18.35
2022-12-13T15:39:41.206Z,18.98
2022-12-13T15:42:32.084Z,18.75
2022-12-13T15:45:01.434Z,17.15
2022-12-13T15:47:29.356Z,19.75
2022-12-13T15:50:05.809Z,18.80
2022-12-13T15:52:41.446Z,18.52
2022-12-13T15:55:11.001Z,21.45
2022-12-13T15:57:55.324Z,18.17
2022-12-13T16:00:34.569Z,21.45
2022-12-13T16:03:28.033Z,20.25
2022-12-13T16:05:56.758Z,28.53
2022-12-13T16:08:35.887Z,20.75
2022-12-13T16:11:03.428Z,21.30
2022-12-13T16:13:38.077Z,20.75
2022-12-13T16:16:28.189Z,20.88
2022-12-13T16:18:59.910Z,19.05
2022-12-13T16:21:28.299Z,17.77
2022-12-13T16:23:55.441Z,17.38
2022-12-13T16:26:29.378Z,18.00
2022-12-13T16:31:35.841Z,10.52
2022-12-13T16:34:04.311Z,11.00
2022-12-13T16:36:31.679Z,10.68
2022-12-13T16:38:58.625Z,10.77
2022-12-13T16:41:25.542Z,11.38
2022-12-13T16:43:58.381Z,11.90
2022-12-13T16:47:14.280Z,13.32
2022-12-13T16:49:27.776Z,11.30
2022-12-13T16:51:55.311Z,12.10
2022-12-13T16:54:23.716Z,11.70
2022-12-13T16:56:50.953Z,10.05
2022-12-13T16:59:20.184Z,10.27
2022-12-13T17:01:47.369Z,10.60
2022-12-13T17:04:20.503Z,10.13
2022-12-13T17:06:48.971Z,9.73
2022-12-13T17:09:16.136Z,10.93
2022-12-13T17:11:45.859Z,10.95
2022-12-13T17:14:13.151Z,10.35
2022-12-13T17:16:40.100Z,10.98
2022-12-13T17:19:07.169Z,10.35
2022-12-13T17:21:35.035Z,10.88
2022-12-13T17:24:03.323Z,10.73
2022-12-13T17:26:59.090Z,11.48
2022-12-13T17:29:26.464Z,11.77
2022-12-13T17:31:53.727Z,14.55
2022-12-13T17:34:20.864Z,13.82
2022-12-13T17:36:47.629Z,14.65
2022-12-13T17:39:14.606Z,14.55
2022-12-13T17:41:42.076Z,13.13
2022-12-13T17:44:09.221Z,13.70
2022-12-13T17:46:36.659Z,14.68
2022-12-13T17:49:03.639Z,13.43
2022-12-13T17:51:31.395Z,14.57
2022-12-13T17:53:58.179Z,17.20
2022-12-13T17:56:25.838Z,16.25
2022-12-13T17:58:52.780Z,15.02
2022-12-13T18:01:24.279Z,14.82
2022-12-13T18:03:56.127Z,15.23
2022-12-13T18:06:24.485Z,16.70
2022-12-13T18:08:51.636Z,15.52
2022-12-13T18:11:35.649Z,17.92
2022-12-13T18:16:36.486Z,21.13
2022-12-13T18:19:10.791Z,19.05
2022-12-13T18:21:38.002Z,18.80
2022-12-13T18:24:06.561Z,19.23
2022-12-13T18:26:33.740Z,22.25
2022-12-13T18:29:00.707Z,23.08
2022-12-13T18:31:28.305Z,20.98
2022-12-13T18:33:55.544Z,21.33
2022-12-13T18:36:24.526Z,22.58
2022-12-13T18:38:51.755Z,21.13
2022-12-13T18:41:23.814Z,21.60
2022-12-13T18:44:04.802Z,21.20
2022-12-13T18:46:33.600Z,19.45
2022-12-13T18:49:00.429Z,20.92
2022-12-13T18:51:28.040Z,18.83
2022-12-13T18:53:55.158Z,21.38
2022-12-13T18:56:22.302Z,21.27
2022-12-13T18:58:49.696Z,23.33
2022-12-13T19:01:18.360Z,21.77
2022-12-13T19:03:47.051Z,22.20
2022-12-13T19:06:20.304Z,20.55
2022-12-13T19:08:49.196Z,22.92
2022-12-13T19:11:16.414Z,21.10
2022-12-13T19:13:43.498Z,22.30
2022-12-13T19:16:14.971Z,21.88
2022-12-13T19:18:42.571Z,22.23
2022-12-13T19:21:13.857Z,21.98
2022-12-13T19:23:41.002Z,23.02
2022-12-13T19:26:09.782Z,25.98
2022-12-13T19:28:38.380Z,28.27
2022-12-13T19:31:15.695Z,23.58
2022-12-13T19:33:43.070Z,23.50
2022-12-13T19:36:10.993Z,24.52
2022-12-13T19:38:38.642Z,21.85
2022-12-13T19:41:14.654Z,20.58
2022-12-13T19:43:41.898Z,18.48
2022-12-13T19:46:09.382Z,20.23
2022-12-13T19:48:37.985Z,18.42
2022-12-13T19:51:07.254Z,18.02
2022-12-13T19:53:35.355Z,18.67
2022-12-13T19:56:12.104Z,19.33
2022-12-13T19:58:42.386Z,18.13
2022-12-13T20:01:09.503Z,19.33
2022-12-13T20:03:41.749Z,19.85
2022-12-13T20:06:10.761Z,20.92
2022-12-13T20:08:37.890Z,21.10
2022-12-13T20:11:07.082Z,21.88
2022-12-13T20:13:34.578Z,23.05
2022-12-13T20:16:01.664Z,22.55
2022-12-13T20:18:28.501Z,22.63
2022-12-13T20:21:14.249Z,22.33
2022-12-13T20:23:48.636Z,23.42
2022-12-13T20:26:27.377Z,22.08
2022-12-13T20:28:54.950Z,26.23
2022-12-13T20:31:28.970Z,21.88
2022-12-13T20:33:56.948Z,23.95
2022-12-13T20:36:26.671Z,23.52
2022-12-13T20:38:56.310Z,24.30
2022-12-13T20:41:25.758Z,24.33
2022-12-13T20:43:57.402Z,30.88
2022-12-13T20:46:25.612Z,34.85
2022-12-13T20:48:53.416Z,31.48
2022-12-13T20:51:22.378Z,30.80
2022-12-13T20:53:50.348Z,31.08
2022-12-13T20:56:19.485Z,29.77
2022-12-13T20:58:46.879Z,27.30
2022-12-13T21:01:18.840Z,25.27
2022-12-13T21:03:49.477Z,21.88
2022-12-13T21:06:16.549Z,18.92
2022-12-13T21:08:52.511Z,17.88
2022-12-13T21:11:26.908Z,18.67
2022-12-13T21:14:07.547Z,18.75
2022-12-13T21:16:41.821Z,25.08
2022-12-13T21:19:14.673Z,24.35
2022-12-13T21:21:41.961Z,25.95
2022-12-13T21:24:09.260Z,26.55
2022-12-13T21:26:36.642Z,27.55
2022-12-13T21:29:06.803Z,23.92
2022-12-13T21:31:34.729Z,20.63
2022-12-13T21:34:08.463Z,20.40
2022-12-13T21:39:15.561Z,19.48
2022-12-13T21:41:43.411Z,19.65
2022-12-13T21:44:11.251Z,18.02
2022-12-13T21:49:28.321Z,19.27
2022-12-13T21:51:55.720Z,18.80
2022-12-13T21:54:23.041Z,19.48
2022-12-13T21:57:08.809Z,19.15
2022-12-13T21:59:35.738Z,17.85
2022-12-13T22:02:12.278Z,18.30
2022-12-13T22:04:41.051Z,18.48
2022-12-13T22:07:10.704Z,17.20
2022-12-13T22:09:38.194Z,16.50
2022-12-13T22:12:10.635Z,16.60
2022-12-13T22:14:37.783Z,16.35
2022-12-13T22:17:04.629Z,16.77
2022-12-13T22:19:31.718Z,17.40
2022-12-13T22:21:58.511Z,17.38
2022-12-13T22:24:25.458Z,16.40
2022-12-13T22:26:52.491Z,16.25
2022-12-13T22:29:19.261Z,15.23
2022-12-13T22:31:48.782Z,15.40
2022-12-13T22:34:16.545Z,16.65
2022-12-13T22:36:43.420Z,14.88
2022-12-13T22:39:18.069Z,16.58
2022-12-13T22:41:46.432Z,14.48
2022-12-13T22:44:13.938Z,15.35
2022-12-13T22:46:41.453Z,15.65
2022-12-13T22:49:09.077Z,15.98
2022-12-13T22:51:36.579Z,17.85
2022-12-13T22:54:03.724Z,18.38
2022-12-13T22:56:32.941Z,17.42
2022-12-13T22:59:02.147Z,16.02
2022-12-13T23:01:34.141Z,15.88
2022-12-13T23:04:01.074Z,15.27
2022-12-13T23:06:30.281Z,16.40
2022-12-13T23:09:02.138Z,17.55
2022-12-13T23:11:48.319Z,15.00
2022-12-13T23:14:18.083Z,15.30
2022-12-13T23:16:45.356Z,15.43
2022-12-13T23:19:40.816Z,15.85
2022-12-13T23:22:02.026Z,15.75
2022-12-13T23:24:29.102Z,17.17
2022-12-13T23:26:55.950Z,16.92
2022-12-13T23:29:22.835Z,16.58
2022-12-13T23:31:49.580Z,17.42
2022-12-13T23:34:16.734Z,16.75
2022-12-13T23:36:43.568Z,16.90
2022-12-13T23:39:11.294Z,17.27
2022-12-13T23:41:38.085Z,14.80
2022-12-13T23:44:05.098Z,14.75
2022-12-13T23:46:34.441Z,14.75
2022-12-13T23:49:02.465Z,14.27
2022-12-13T23:51:29.545Z,14.38
2022-12-13T23:53:56.689Z,15.57
2022-12-13T23:56:23.956Z,13.40
2022-12-13T23:58:51.868Z,14.05
